Sonic Adventure (DX): Overall Rankings

Records: Times | Rings | Scores | Races | Bosses | Freestyle
Leaders: Times | Rings | Scores | Races | Bosses | Freestyle | Overall
Rank Player Percent Points Date
1 Gamepro011 97.7% 396 10-18-19
1 Sonicspeedruner 97.7% 396 10-18-19
3 DarkPolarNight 96.4% 633 10-18-19
4 Jawzun 92.9% 1269 10-18-19
5 Dashjump 91.3% 1543 10-18-19
6 Avento128bits 89.3% 1904 10-18-19
7 DarkspinesSonic 89.3% 1911 10-18-19
8 ike6252 89.1% 1952 10-18-19
9 F-Man 87.2% 2284 10-18-19
10 Coolfansonic 86.8% 2359 10-18-19
11 TheRealShadnic 84.8% 2723 10-18-19
12 HyperSonic7701 83.9% 2884 10-18-19
13 yoshifan 82.2% 3180 10-18-19
14 frankoredstrato 81.8% 3250 10-18-19
15 francisco 80.8% 3427 10-18-19
16 Marth 80.6% 3468 10-18-19
17 InferSaime 79.4% 3686 10-18-19
18 PfoSonic 78.9% 3765 10-18-19
19 Paragod 78.5% 3851 10-18-19
20 THC98 77.7% 3997 10-18-19
21 Stefan 75.3% 4426 10-18-19
22 Dekuboy 73.8% 4682 10-18-19
23 RPGnutter 73.1% 4818 10-18-19
24 bertin 72.9% 4843 10-18-19
25 sonicam 70.9% 5208 10-18-19
26 drminus 69.4% 5478 10-18-19
27 chaos shadow 68.8% 5576 10-18-19
28 Nim 68.0% 5729 10-18-19
29 chainchump 65.5% 6170 10-18-19
30 Combo 64.9% 6278 10-18-19
31 SkyLights 63.8% 6485 10-18-19
32 xXMegaManXx 62.1% 6782 10-18-19
33 Diamond 61.9% 6826 10-18-19
34 Auriman1 59.7% 7223 10-18-19
34 GerbilSoft 59.7% 7223 10-18-19
36 OmegaDJ 59.6% 7232 10-18-19
37 magnum12 58.8% 7380 10-18-19
38 Thorn 56.5% 7780 10-18-19
39 P1 Pause 56.3% 7825 10-18-19
40 mike89 55.2% 8028 10-18-19
41 Dave Cramer 53.3% 8363 10-18-19
42 Groudon199 53.2% 8378 10-18-19
43 Parax 52.7% 8462 10-18-19
44 Shadow Jacky 52.1% 8570 10-18-19
45 Zurggriff 48.5% 9219 10-18-19
46 SPVLABS 48.2% 9285 10-18-19
47 Psymar 47.1% 9473 10-18-19
48 Arch 46.3% 9624 10-18-19
49 Niczur 46.0% 9666 10-18-19
50 Chao_Fan 45.3% 9789 10-18-19
51 mauserman 44.7% 9895 10-18-19
52 Quartz 44.2% 9998 10-18-19
53 teamblackarms 43.5% 10112 10-18-19
54 Psyknux 42.9% 10235 10-18-19
55 James_Bertolli 42.4% 10323 10-18-19
56 Cyan Ryan 42.3% 10339 10-18-19
57 NintenDan 41.9% 10400 10-18-19
58 Turbos 41.3% 10507 10-18-19
59 Webber3000 41.3% 10514 10-18-19
60 Ring Rush 41.2% 10536 10-18-19
61 Fr3nZy 41.1% 10547 10-18-19
62 Cream147 40.9% 10581 10-18-19
63 videogamemaster777 40.8% 10610 10-18-19
64 Siavash Tazari 40.7% 10627 10-18-19
65 buddychaos0415 40.2% 10719 10-18-19
66 SadisticMystic 39.7% 10794 10-18-19
67 ethmar 39.4% 10852 10-18-19
68 eggFL 38.7% 10983 10-18-19
69 Calfd 38.1% 11082 10-18-19
70 SB737 37.1% 11273 10-18-19
71 supersonic465 36.6% 11354 10-18-19
72 supersonicfan 36.0% 11459 10-18-19
73 FuzZerd 34.9% 11669 10-18-19
74 Aitamen 34.4% 11741 10-18-19
75 BigAL49 34.0% 11819 10-18-19
76 elecmouse101 33.9% 11832 10-18-19
77 danieldude 33.9% 11841 10-18-19
78 Austinf 33.5% 11913 10-18-19
79 metanightmare22 32.8% 12043 10-18-19
80 dabestgamer 32.3% 12122 10-18-19
81 MiStEr_ShAoLiN 32.2% 12148 10-18-19
82 Andrea Ritsu 31.4% 12279 10-18-19
83 itsPersonnal 31.3% 12310 10-18-19
84 Cybrax 30.6% 12436 10-18-19
85 WeegeeZV 30.3% 12484 10-18-19
86 JamminX42 30.3% 12493 10-18-19
87 SilvertheAlmighty 30.2% 12494 10-18-19
88 Mastakirby 30.0% 12547 10-18-19
89 VMU Player Banned 28.5% 12807 10-18-19
90 Omega Rafael Santos 28.1% 12880 10-18-19
91 Staf 27.8% 12929 10-18-19
92 The T 27.5% 12990 10-18-19
93 EngiNerd 27.2% 13044 10-18-19
94 lordmetalsonic 26.7% 13127 10-18-19
95 Hipertails12 26.6% 13153 10-18-19
96 welldooder64 26.1% 13237 10-18-19
97 GreatStar 26.1% 13246 10-18-19
98 The Great Lord Mick 25.8% 13297 10-18-19
99 Sondow 25.7% 13317 10-18-19
100 LinksDarkArrows 25.5% 13349 10-18-19
101 Skylace 24.6% 13513 10-18-19
102 a_moustache 23.8% 13653 10-18-19
103 Rolken 23.0% 13792 10-18-19
104 Xia 21.4% 14078 10-18-19
105 Spinballwizard 21.4% 14080 10-18-19
106 Kogen Player Banned 21.3% 14104 10-18-19
107 CoEmpathy 21.1% 14141 10-18-19
108 Don 21.1% 14142 10-18-19
109 f0rever_zer0 21.0% 14157 10-18-19
110 Miles9999 20.9% 14171 10-18-19
111 Twilisailor 20.9% 14174 10-18-19
112 Game_Complete 20.8% 14179 10-18-19
113 Cutiefox 20.7% 14203 10-18-19
114 andres430 20.1% 14313 10-18-19
115 Cruizer 19.9% 14344 10-18-19
116 iSonicKid2K 19.7% 14377 10-18-19
117 SADXTryHard 19.6% 14402 10-18-19
118 GarnetPrincess 19.0% 14502 10-18-19
119 N 19.0% 14506 10-18-19
120 AxlThunder 18.7% 14567 10-18-19
121 knuckles_sonic8 18.4% 14626 10-18-19
122 KinkyCadence 17.9% 14711 10-18-19
123 The Knuckles Chao 17.8% 14726 10-18-19
124 Team_Yoshi 17.8% 14734 10-18-19
125 Termon 17.6% 14767 10-18-19
126 LittleBigness 17.4% 14801 10-18-19
127 SonicWinDX 17.3% 14814 10-18-19
128 FoxBoy 17.3% 14822 10-18-19
129 Drakodan 16.6% 14943 10-18-19
130 Sonic Singularity 15.5% 15144 10-18-19
131 Pokemonmaster888 15.3% 15175 10-18-19
132 paulie9990 14.8% 15266 10-18-19
133 SilverSonic 14.2% 15368 10-18-19
134 MPit08 14.0% 15413 10-18-19
135 Mo Player Banned 13.9% 15433 10-18-19
136 koinu93 13.6% 15480 10-18-19
137 Cod4Scopes 13.3% 15539 10-18-19
138 Jerzia 13.2% 15547 10-18-19
139 Hunters13 13.1% 15568 10-18-19
140 HyperSonic64 13.1% 15574 10-18-19
141 booo95 12.9% 15606 10-18-19
142 Chawkk 12.9% 15609 10-18-19
143 SuperSonic101 12.7% 15635 10-18-19
144 Maxinfamily 12.6% 15662 10-18-19
145 R3FR4G 12.5% 15670 10-18-19
146 PsyBorg 12.3% 15705 10-18-19
147 Kanimayo_Jp 12.3% 15715 10-18-19
148 LilZero 12.2% 15723 10-18-19
149 Flying Fox 12.2% 15724 10-18-19
150 BrokenArthritis 12.1% 15747 10-18-19
151 Therio 11.7% 15817 10-18-19
152 sonicspeed 11.4% 15873 10-18-19
153 SonicAD 11.4% 15876 10-18-19
154 douglas 11.3% 15895 10-18-19
155 thewaytodawnnn 11.2% 15917 10-18-19
156 Matt_TY 11.1% 15931 10-18-19
157 ModifiedMonkee 11.0% 15952 10-18-19
158 joecoolgames 10.4% 16045 10-18-19
159 SuperBlitzCraig 10.4% 16046 10-18-19
160 Cooljay 10.4% 16048 10-18-19
161 SeaWolf 10.4% 16053 10-18-19
162 videogamer1014 10.1% 16106 10-18-19
163 AC-Tygo 9.9% 16146 10-18-19
164 welshmoose05 9.8% 16160 10-18-19
165 OddCook 9.6% 16196 10-18-19
166 TFEC Headshot 9.6% 16201 10-18-19
167 crazy1993 9.5% 16206 10-18-19
168 Mariobutch 9.5% 16218 10-18-19
169 Mcshuggets 9.4% 16231 10-18-19
170 Irregular Zero 9.1% 16291 10-18-19
171 nuckrieg 9.0% 16299 10-18-19
172 niscool 9.0% 16303 10-18-19
173 Shadowthegreat 8.7% 16357 10-18-19
174 superjupi 8.7% 16364 10-18-19
175 SirTobbii 8.6% 16366 10-18-19
176 Powerjohn25 8.4% 16406 10-18-19
177 sonamyfan666 8.4% 16413 10-18-19
178 iarebored 8.4% 16419 10-18-19
179 SaviourDC 8.3% 16421 10-18-19
180 SonicKnuckles 8.3% 16433 10-18-19
181 Badlex727 8.3% 16434 10-18-19
182 Werey 8.1% 16458 10-18-19
183 adf 7.9% 16501 10-18-19
184 Megaman EXE565 7.6% 16551 10-18-19
185 ArcticDragon 7.5% 16578 10-18-19
186 Platformer 7.3% 16608 10-18-19
187 iden1 7.2% 16620 10-18-19
188 timpkmn89 7.2% 16627 10-18-19
189 Swift Hobo 7.2% 16631 10-18-19
190 FocusSight64 7.2% 16634 10-18-19
191 Vicklaw 7.0% 16654 10-18-19
192 wheatrich 7.0% 16665 10-18-19
193 Rickyman48 6.9% 16678 10-18-19
194 Sm4sh 6.7% 16714 10-18-19
195 KitsuneYamaro 6.7% 16715 10-18-19
196 Triseena 6.5% 16759 10-18-19
197 CyberShadow 6.3% 16779 10-18-19
198 Starlight Sable 6.3% 16781 10-18-19
199 Destroyer121121 6.3% 16785 10-18-19
200 slade23 6.3% 16789 10-18-19
201 dShadow 6.2% 16806 10-18-19
202 IsisDazs 6.2% 16813 10-18-19
203 BlankTH 5.9% 16860 10-18-19
204 Monkeh 5.7% 16886 10-18-19
205 SonicU260 5.5% 16922 10-18-19
206 Richied 5.5% 16926 10-18-19
207 DaDude 5.5% 16930 10-18-19
207 Swinkly 5.5% 16930 10-18-19
209 Crispian 5.5% 16934 10-18-19
210 sonicd5 5.4% 16943 10-18-19
211 Zip 5.3% 16960 10-18-19
212 VeritasDL 5.2% 16980 10-18-19
213 tal39h 5.0% 17014 10-18-19
214 Kirbymon30 5.0% 17028 10-18-19
215 ALundstrom10 4.9% 17029 10-18-19
216 soniccoloursunleashed 4.8% 17063 10-18-19
217 Drflash55 4.7% 17076 10-18-19
218 Bass 4.6% 17095 10-18-19
219 Yish 4.6% 17099 10-18-19
220 neaolas 4.5% 17105 10-18-19
221 zapp 4.5% 17111 10-18-19
222 UninspiredUsername 4.5% 17115 10-18-19
223 Sonicsuperstar1 4.4% 17120 10-18-19
224 superiorsonic 4.4% 17125 10-18-19
225 gamefreak1292 4.4% 17134 10-18-19
226 Sora_yx 4.2% 17165 10-18-19
227 Chaos_Overlord 4.0% 17201 10-18-19
228 TakaRikka 3.9% 17212 10-18-19
229 Valfore 3.9% 17221 10-18-19
230 Dage4Aquatic 3.8% 17239 10-18-19
231 ShinigamiMachine 3.7% 17248 10-18-19
232 Regano1000 3.6% 17264 10-18-19
233 MK 3.5% 17284 10-18-19
234 Ace747 3.5% 17297 10-18-19
235 Jua Rever 3.3% 17325 10-18-19
236 Venick409 3.1% 17364 10-18-19
237 HHNNBBHHN 3.1% 17365 10-18-19
237 Illidan 3.1% 17365 10-18-19
239 Brian_pso 3.1% 17369 10-18-19
240 nman36 3.0% 17376 10-18-19
240 Sithwarrior26 3.0% 17376 10-18-19
242 Egor305 2.9% 17403 10-18-19
243 ingx24 2.9% 17405 10-18-19
244 TheChaosEmeraIds 2.8% 17406 10-18-19
245 Nickson98 2.8% 17418 10-18-19
246 SkyBon 2.8% 17420 10-18-19
247 FSSRandomvids 2.7% 17424 10-18-19
248 dekki1234 2.7% 17427 10-18-19
249 Fozer 2.7% 17438 10-18-19
250 sonic29887 2.6% 17443 10-18-19
251 Aiko 2.6% 17450 10-18-19
251 Colomb_30 2.6% 17450 10-18-19
253 TheUltraBlur 2.6% 17454 10-18-19
254 1stKirbyever 2.5% 17461 10-18-19
255 TimTH 2.4% 17479 10-18-19
256 Th4tN1nj4Turtl3 2.3% 17505 10-18-19
257 Cort_pso 2.3% 17510 10-18-19
258 Doom-9 2.2% 17517 10-18-19
259 ieatatsonic 2.2% 17520 10-18-19
260 Mariosonic15 2.2% 17530 10-18-19
261 MStitomix 2.1% 17540 10-18-19
262 HermitHelmet 2.1% 17546 10-18-19
263 arcfx1985 2.0% 17551 10-18-19
264 SuperSonic71087 2.0% 17562 10-18-19
265 Got4n 2.0% 17566 10-18-19
266 Artie 1.9% 17568 10-18-19
267 Questionguy555 1.9% 17571 10-18-19
268 Jose_15 1.9% 17575 10-18-19
269 djmat 1.8% 17586 10-18-19
270 SuperSonicfan9595 1.8% 17595 10-18-19
271 sonicandamy Player Banned 1.7% 17613 10-18-19
272 LancexExWx 1.7% 17618 10-18-19
273 Paixii 1.6% 17621 10-18-19
274 son1cgu1tar 1.6% 17626 10-18-19
275 Heroes_Hater 1.6% 17634 10-18-19
276 BallzeH 1.5% 17642 10-18-19
277 Jamixesa 1.5% 17648 10-18-19
278 Mankster101 1.5% 17649 10-18-19
279 BecauseWarAnvil 1.5% 17655 10-18-19
280 Shanekilz 1.4% 17661 10-18-19
281 Crydio 1.4% 17663 10-18-19
282 SpiritDragon1995 1.4% 17665 10-18-19
283 MarewBFN 1.3% 17681 10-18-19
284 stanski 1.3% 17683 10-18-19
285 ArthurVGCP 1.3% 17684 10-18-19
286 Sonique Hedgehog 1.3% 17686 10-18-19
287 Blue Infamy 1.2% 17699 10-18-19
288 p0ker 1.2% 17702 10-18-19
289 ErrortheCucco 1.1% 17710 10-18-19
290 Rikum22 1.1% 17713 10-18-19
291 Arthas 1.1% 17716 10-18-19
292 sonic1001 1.1% 17721 10-18-19
293 AJSIV 1.1% 17727 10-18-19
294 syco1098 1.0% 17728 10-18-19
295 WingedInsignia 1.0% 17730 10-18-19
296 Sonic the Hedgehod16 1.0% 17731 10-18-19
297 ASINISTERTACO 1.0% 17739 10-18-19
298 sonicfan9 1.0% 17742 10-18-19
299 themachoman202 0.9% 17755 10-18-19
300 BlackArmsShadow 0.9% 17756 10-18-19
301 shadowblast63 Player Banned 0.9% 17760 10-18-19
302 Fivavoa 0.8% 17764 10-18-19
303 Ben1502 0.8% 17765 10-18-19
304 MastaToken 0.8% 17766 10-18-19
304 Mr. Jones 0.8% 17766 10-18-19
306 darkstarblaze 0.8% 17767 10-18-19
306 Greham Adelphis 0.8% 17767 10-18-19
306 TommyeAsY 0.8% 17767 10-18-19
309 ptorflaxendrosis 0.8% 17774 10-18-19
310 FlandreScarlet9999vr 0.8% 17776 10-18-19
311 Gvozdevik 0.8% 17777 10-18-19
312 Knuckles 0.8% 17779 10-18-19
312 Zeldocto 0.8% 17779 10-18-19
314 BeeAwwb 0.7% 17785 10-18-19
315 KaM Mark MaK 0.7% 17787 10-18-19
316 ShadouZaHejjihoggu 0.7% 17790 10-18-19
317 Sogeking 0.7% 17798 10-18-19
317 Sonic The Star 0.7% 17798 10-18-19
319 darkersupershadic 0.7% 17799 10-18-19
320 Sonic62 0.6% 17803 10-18-19
321 Sarger001 0.6% 17806 10-18-19
322 Grady219 0.6% 17808 10-18-19
323 dragondragon18 0.6% 17809 10-18-19
323 SonicK100 0.6% 17809 10-18-19
325 Shadygamerfreak 0.6% 17810 10-18-19
326 Jawaah 0.6% 17813 10-18-19
327 Antek 0.6% 17816 10-18-19
328 SpinDashMaster 0.6% 17817 10-18-19
329 Klaus 0.5% 17818 10-18-19
330 SilverK 0.5% 17821 10-18-19
331 BioShadow 0.5% 17825 10-18-19
332 Videogamer123 0.5% 17832 10-18-19
333 IcKY 0.5% 17835 10-18-19
334 oTaiIilLsS 0.4% 17842 10-18-19
335 isaihtb11 0.4% 17846 10-18-19
336 OhNoes! 0.4% 17847 10-18-19
337 Mad Andy 0.4% 17848 10-18-19
337 zaktu40 0.4% 17848 10-18-19
339 S-MS32X-S 0.4% 17850 10-18-19
340 gaara1234 0.4% 17852 10-18-19
341 gamed00d 0.3% 17857 10-18-19
342 Mister_Slick 0.3% 17863 10-18-19
343 Sonic06Fan 0.3% 17866 10-18-19
344 Rush Hero 0.3% 17868 10-18-19
345 ChaosNexuss 0.3% 17869 10-18-19
346 SonicMega167 0.2% 17874 10-18-19
347 Iwannabelink 0.2% 17876 10-18-19
348 sonknuck23 0.2% 17878 10-18-19
349 gamer1245 0.2% 17885 10-18-19
350 DanielTheFalcon 0.2% 17886 10-18-19
351 Burningskull123 0.1% 17893 10-18-19
352 Sonicontherun 0.1% 17904 10-18-19
353 Lil_Dude 0.1% 17906 10-18-19
354 antiwwe 0.0% 17910 10-18-19
355 Cbwade15 0.0% 17914 10-18-19
355 Genuine Hedgehog 0.0% 17914 10-18-19
357 Tyrouble 0.0% 17918 10-18-19
358 MegabombBlade 0.0% 17925 10-18-19
358 neji_hyuuga 0.0% 17925 10-18-19
358 Over 0.0% 17925 10-18-19
358 sdj6707 Player Banned 0.0% 17925 10-18-19
358 Tran Sonic Fan Player Banned 0.0% 17925 10-18-19

This page is using the New Data Table System. [FUTURE]

Game ID: 3 | Category ID: 10
Hits: 76,217 | Hits This Month: 168 | DB Calls: 21 | Mem Usage: 5.89 MB | Time: 0.24s | Printable

The Sonic Center v3.9
Copyright 2003-2011 by The Sonic Center Team.